createdAt,value
2022-08-18T00:01:25.638Z,9.60
2022-08-18T00:04:03.118Z,9.50
2022-08-18T00:06:32.019Z,11.80
2022-08-18T00:09:04.488Z,10.20
2022-08-18T00:11:41.113Z,8.70
2022-08-18T00:14:22.305Z,8.90
2022-08-18T00:16:54.242Z,8.70
2022-08-18T00:19:46.659Z,9.40
2022-08-18T00:22:21.031Z,8.50
2022-08-18T00:24:54.147Z,8.10
2022-08-18T00:27:28.586Z,8.90
2022-08-18T00:30:05.146Z,8.70
2022-08-18T00:32:59.488Z,7.60
2022-08-18T00:35:37.858Z,7.70
2022-08-18T00:38:09.373Z,9.30
2022-08-18T00:40:56.321Z,8.40
2022-08-18T00:43:35.545Z,8.50
2022-08-18T00:46:10.272Z,8.30
2022-08-18T00:48:38.557Z,8.50
2022-08-18T00:51:16.052Z,9.70
2022-08-18T00:54:05.859Z,8.70
2022-08-18T00:56:50.106Z,9.20
2022-08-18T00:59:58.405Z,8.10
2022-08-18T01:02:35.923Z,8.30
2022-08-18T01:05:16.661Z,8.90
2022-08-18T01:07:50.064Z,8.60
2022-08-18T01:10:23.953Z,8.80
2022-08-18T01:12:59.025Z,8.00
2022-08-18T01:15:30.442Z,8.70
2022-08-18T01:18:28.246Z,8.20
2022-08-18T01:21:24.555Z,9.00
2022-08-18T01:23:55.018Z,8.20
2022-08-18T01:26:27.110Z,8.60
2022-08-18T01:28:55.356Z,8.20
2022-08-18T01:31:39.353Z,7.70
2022-08-18T01:34:25.520Z,7.50
2022-08-18T01:36:55.157Z,9.10
2022-08-18T01:41:23.806Z,8.60
2022-08-18T01:42:19.700Z,8.30
2022-08-18T01:44:51.346Z,7.70
2022-08-18T01:47:20.089Z,8.00
2022-08-18T01:49:48.301Z,9.10
2022-08-18T01:52:21.146Z,8.80
2022-08-18T01:54:51.919Z,7.60
2022-08-18T01:57:22.346Z,8.70
2022-08-18T01:59:51.542Z,7.60
2022-08-18T02:02:28.300Z,7.70
2022-08-18T02:05:05.613Z,7.40
2022-08-18T02:07:36.470Z,7.70
2022-08-18T02:10:12.263Z,8.50
2022-08-18T02:12:42.729Z,7.50
2022-08-18T02:15:12.446Z,9.40
2022-08-18T02:17:45.004Z,9.10
2022-08-18T02:20:19.046Z,7.60
2022-08-18T02:22:50.988Z,7.90
2022-08-18T02:25:20.310Z,8.10
2022-08-18T02:27:48.526Z,8.30
2022-08-18T02:30:19.294Z,7.80
2022-08-18T02:32:48.713Z,7.50
2022-08-18T02:35:17.389Z,8.40
2022-08-18T02:37:48.610Z,8.40
2022-08-18T02:40:19.277Z,8.70
2022-08-18T02:42:47.644Z,9.20
2022-08-18T02:45:16.435Z,7.30
2022-08-18T02:47:45.160Z,8.40
2022-08-18T02:50:14.506Z,8.40
2022-08-18T02:52:42.905Z,9.40
2022-08-18T02:55:11.919Z,8.50
2022-08-18T02:57:47.038Z,9.70
2022-08-18T03:02:51.682Z,7.60
2022-08-18T03:05:20.674Z,8.40
2022-08-18T03:07:50.780Z,7.90
2022-08-18T03:10:32.453Z,7.80
2022-08-18T03:13:02.617Z,8.60
2022-08-18T03:15:30.979Z,7.50
2022-08-18T03:17:59.870Z,8.60
2022-08-18T03:20:30.144Z,8.80
2022-08-18T03:23:09.508Z,8.10
2022-08-18T03:25:49.046Z,8.40
2022-08-18T03:28:18.032Z,7.80
2022-08-18T03:30:46.444Z,8.80
2022-08-18T03:33:14.645Z,8.00
2022-08-18T03:35:42.958Z,9.00
2022-08-18T03:38:12.173Z,7.60
2022-08-18T03:40:40.263Z,8.00
2022-08-18T03:43:50.268Z,7.30
2022-08-18T03:46:04.671Z,8.10
2022-08-18T03:48:33.780Z,8.50
2022-08-18T03:51:16.372Z,8.70
2022-08-18T03:53:46.894Z,8.80
2022-08-18T03:56:27.742Z,8.50
2022-08-18T03:59:01.823Z,8.40
2022-08-18T04:01:34.158Z,7.70
2022-08-18T04:04:07.346Z,8.10
2022-08-18T04:06:45.461Z,9.20
2022-08-18T04:09:16.024Z,8.20
2022-08-18T04:11:46.006Z,8.40
2022-08-18T04:14:18.991Z,8.30
2022-08-18T04:16:49.364Z,7.40
2022-08-18T04:19:26.347Z,9.60
2022-08-18T04:21:58.310Z,8.20
2022-08-18T04:24:31.241Z,8.20
2022-08-18T04:27:05.065Z,8.20
2022-08-18T04:29:33.768Z,8.20
2022-08-18T04:32:06.780Z,8.30
2022-08-18T04:34:35.626Z,8.30
2022-08-18T04:37:04.623Z,8.90
2022-08-18T04:39:33.418Z,8.60
2022-08-18T04:42:03.854Z,8.00
2022-08-18T04:44:38.131Z,8.80
2022-08-18T04:47:09.255Z,7.70
2022-08-18T04:49:39.039Z,8.50
2022-08-18T04:52:39.716Z,9.40
2022-08-18T04:55:11.436Z,8.40
2022-08-18T04:57:40.197Z,8.00
2022-08-18T05:00:13.762Z,7.90
2022-08-18T05:02:41.967Z,8.40
2022-08-18T05:05:11.370Z,8.30
2022-08-18T05:07:46.809Z,8.90
2022-08-18T05:10:17.921Z,8.40
2022-08-18T05:12:48.887Z,8.20
2022-08-18T05:15:19.006Z,9.10
2022-08-18T05:17:50.577Z,9.40
2022-08-18T05:20:20.698Z,8.30
2022-08-18T05:22:49.989Z,7.90
2022-08-18T05:25:18.794Z,7.70
2022-08-18T05:27:47.266Z,9.10
2022-08-18T05:30:15.851Z,9.20
2022-08-18T05:32:50.035Z,7.60
2022-08-18T05:37:52.614Z,9.30
2022-08-18T05:40:25.314Z,8.90
2022-08-18T05:42:57.708Z,9.10
2022-08-18T05:45:27.972Z,9.20
2022-08-18T05:48:00.397Z,8.90
2022-08-18T05:50:35.025Z,8.10
2022-08-18T05:53:20.712Z,8.70
2022-08-18T05:56:23.192Z,8.90
2022-08-18T05:58:55.919Z,8.50
2022-08-18T06:01:33.261Z,8.60
2022-08-18T06:04:14.135Z,8.00
2022-08-18T06:06:47.799Z,8.80
2022-08-18T06:09:29.230Z,8.00
2022-08-18T06:12:16.956Z,8.20
2022-08-18T06:14:45.643Z,8.80
2022-08-18T06:18:10.236Z,8.50
2022-08-18T06:20:54.082Z,7.90
2022-08-18T06:24:07.308Z,7.50
2022-08-18T06:27:02.522Z,7.90
2022-08-18T06:29:49.844Z,7.00
2022-08-18T06:32:57.664Z,7.90
2022-08-18T06:36:19.425Z,8.20
2022-08-18T06:39:05.915Z,7.50
2022-08-18T06:41:49.082Z,8.50
2022-08-18T06:44:32.843Z,7.70
2022-08-18T06:47:34.825Z,8.70
2022-08-18T06:50:26.461Z,8.10
2022-08-18T06:53:02.572Z,7.40
2022-08-18T06:55:39.483Z,7.40
2022-08-18T06:58:14.209Z,7.40
2022-08-18T07:03:21.645Z,8.20
2022-08-18T07:06:18.764Z,8.40
2022-08-18T07:08:53.011Z,7.80
2022-08-18T07:11:33.173Z,7.10
2022-08-18T07:14:23.032Z,7.60
2022-08-18T07:17:06.245Z,8.60
2022-08-18T07:19:34.626Z,7.60
2022-08-18T07:22:04.948Z,7.10
2022-08-18T07:24:42.154Z,7.20
2022-08-18T07:27:21.165Z,7.10
2022-08-18T07:30:15.567Z,7.50
2022-08-18T07:32:53.365Z,7.50
2022-08-18T07:35:39.476Z,6.90
2022-08-18T07:38:43.523Z,6.30
2022-08-18T07:41:45.316Z,7.10
2022-08-18T07:45:06.236Z,7.10
2022-08-18T07:48:37.766Z,6.50
2022-08-18T07:51:57.790Z,6.60
2022-08-18T07:55:06.714Z,7.00
2022-08-18T07:58:20.875Z,6.80
2022-08-18T08:01:19.929Z,6.90
2022-08-18T08:04:09.835Z,7.00
2022-08-18T08:10:24.125Z,6.50
2022-08-18T08:13:06.027Z,6.20
2022-08-18T08:15:46.305Z,6.70
2022-08-18T08:18:38.117Z,6.10
2022-08-18T08:21:14.882Z,7.40
2022-08-18T08:24:13.178Z,6.30
2022-08-18T08:26:55.679Z,6.80
2022-08-18T08:29:54.398Z,8.00
2022-08-18T08:33:08.512Z,9.40
2022-08-18T08:35:51.240Z,9.30
2022-08-18T08:38:42.772Z,8.60
2022-08-18T08:41:30.792Z,8.80
2022-08-18T08:44:09.520Z,8.80
2022-08-18T08:46:55.520Z,9.20
2022-08-18T08:49:34.023Z,8.50
2022-08-18T08:52:23.089Z,8.20
2022-08-18T08:55:03.464Z,8.80
2022-08-18T08:57:46.516Z,8.20
2022-08-18T09:00:30.838Z,7.50
2022-08-18T09:03:30.371Z,8.80
2022-08-18T09:06:37.934Z,7.40
2022-08-18T09:09:22.183Z,7.30
2022-08-18T09:12:25.752Z,7.30
2022-08-18T09:15:23.770Z,8.20
2022-08-18T09:18:45.092Z,6.80
2022-08-18T09:21:31.327Z,7.60
2022-08-18T09:24:31.914Z,7.10
2022-08-18T09:27:04.083Z,7.00
2022-08-18T09:29:44.325Z,6.50
2022-08-18T09:32:22.823Z,6.60
2022-08-18T09:35:17.658Z,6.30
2022-08-18T09:38:27.547Z,6.60
2022-08-18T09:41:32.358Z,6.80
2022-08-18T09:44:21.240Z,7.40
2022-08-18T09:47:00.041Z,6.80
2022-08-18T09:49:31.008Z,6.20
2022-08-18T09:52:25.447Z,5.80
2022-08-18T09:55:18.951Z,5.70
2022-08-18T09:57:48.190Z,6.80
2022-08-18T10:00:28.463Z,5.80
2022-08-18T10:02:57.199Z,5.90
2022-08-18T10:05:31.174Z,5.50
2022-08-18T10:08:08.160Z,5.30
2022-08-18T10:11:13.400Z,5.80
2022-08-18T10:14:07.356Z,5.90
2022-08-18T10:20:42.649Z,5.50
2022-08-18T10:23:11.955Z,5.80
2022-08-18T10:25:48.418Z,6.30
2022-08-18T10:28:55.516Z,4.90
2022-08-18T10:31:29.221Z,5.90
2022-08-18T10:34:16.468Z,5.60
2022-08-18T10:37:06.234Z,4.80
2022-08-18T10:39:44.048Z,4.90
2022-08-18T10:42:34.143Z,4.90
2022-08-18T10:45:25.370Z,4.70
2022-08-18T10:48:17.570Z,5.70
2022-08-18T10:51:13.065Z,5.00
2022-08-18T10:54:07.046Z,5.00
2022-08-18T10:56:55.690Z,6.40
2022-08-18T11:00:26.178Z,5.00
2022-08-18T11:03:55.470Z,5.10
2022-08-18T11:06:26.230Z,4.80
2022-08-18T11:09:02.219Z,4.70
2022-08-18T11:15:22.304Z,5.40
2022-08-18T11:18:12.329Z,4.80
2022-08-18T11:20:43.580Z,5.40
2022-08-18T11:23:17.836Z,5.40
2022-08-18T11:25:48.408Z,4.70
2022-08-18T11:28:29.269Z,4.80
2022-08-18T11:31:00.165Z,4.70
2022-08-18T11:33:28.900Z,5.50
2022-08-18T11:36:01.733Z,5.80
2022-08-18T11:38:33.147Z,5.20
2022-08-18T11:41:48.011Z,5.30
2022-08-18T11:44:29.295Z,4.80
2022-08-18T11:47:14.711Z,4.90
2022-08-18T11:50:08.449Z,4.70
2022-08-18T11:52:53.780Z,5.10
2022-08-18T11:55:33.874Z,5.70
2022-08-18T11:58:03.111Z,4.90
2022-08-18T12:00:57.231Z,4.80
2022-08-18T12:03:45.498Z,4.60
2022-08-18T12:06:30.598Z,5.00
2022-08-18T12:11:41.171Z,4.70
2022-08-18T12:14:35.522Z,4.40
2022-08-18T12:17:08.954Z,6.10
2022-08-18T12:19:37.157Z,6.50
2022-08-18T12:22:20.731Z,7.20
2022-08-18T12:24:51.637Z,7.20
2022-08-18T12:27:24.179Z,8.20
2022-08-18T12:29:55.547Z,8.20
2022-08-18T12:32:48.891Z,8.10
2022-08-18T12:38:13.017Z,9.20
2022-08-18T12:40:44.209Z,8.20
2022-08-18T12:43:14.278Z,9.20
2022-08-18T12:45:44.428Z,9.30
2022-08-18T12:48:13.064Z,9.30
2022-08-18T12:53:56.720Z,9.10
2022-08-18T12:56:30.778Z,9.50
2022-08-18T12:59:07.260Z,8.80
2022-08-18T13:01:39.815Z,10.40
2022-08-18T13:04:12.694Z,9.70
2022-08-18T13:07:00.088Z,9.10
2022-08-18T13:09:34.862Z,8.80
2022-08-18T13:12:17.728Z,8.90
2022-08-18T13:14:48.779Z,8.70
2022-08-18T13:17:32.463Z,9.70
2022-08-18T13:20:15.023Z,9.20
2022-08-18T13:22:44.556Z,9.30
2022-08-18T13:25:32.571Z,9.90
2022-08-18T13:28:02.618Z,8.50
2022-08-18T13:30:33.009Z,9.20
2022-08-18T13:33:06.003Z,8.90
2022-08-18T13:35:54.475Z,8.80
2022-08-18T13:38:28.012Z,8.90
2022-08-18T13:41:01.289Z,11.30
2022-08-18T13:43:39.899Z,10.20
2022-08-18T13:46:16.041Z,10.20
2022-08-18T13:48:46.756Z,9.50
2022-08-18T13:51:24.696Z,9.80
2022-08-18T13:54:17.449Z,9.00
2022-08-18T13:56:41.182Z,8.70
2022-08-18T13:59:22.502Z,8.00
2022-08-18T14:01:53.207Z,10.00
2022-08-18T14:04:23.165Z,9.00
2022-08-18T14:06:59.125Z,8.70
2022-08-18T14:09:37.311Z,8.10
2022-08-18T14:12:23.160Z,9.80
2022-08-18T14:14:55.602Z,8.20
2022-08-18T14:17:27.053Z,8.30
2022-08-18T14:20:15.183Z,7.60
2022-08-18T14:23:24.003Z,8.00
2022-08-18T14:26:15.072Z,8.50
2022-08-18T14:28:45.707Z,8.40
2022-08-18T14:31:18.136Z,9.40
2022-08-18T14:33:51.659Z,10.30
2022-08-18T14:36:29.922Z,8.80
2022-08-18T14:39:00.977Z,9.10
2022-08-18T14:41:30.713Z,7.60
2022-08-18T14:44:12.082Z,9.10
2022-08-18T14:46:54.010Z,9.10
2022-08-18T14:49:29.410Z,9.60
2022-08-18T14:52:03.442Z,9.20
2022-08-18T14:54:40.252Z,9.90
2022-08-18T14:57:15.195Z,9.40
2022-08-18T14:59:44.697Z,8.30
2022-08-18T15:02:13.610Z,9.10
2022-08-18T15:04:55.828Z,8.80
2022-08-18T15:07:25.385Z,8.40
2022-08-18T15:10:17.027Z,9.30
2022-08-18T15:12:44.478Z,8.50
2022-08-18T15:15:17.906Z,8.30
2022-08-18T15:17:50.280Z,10.50
2022-08-18T15:20:29.609Z,10.50
2022-08-18T15:23:28.321Z,8.10
2022-08-18T15:25:58.871Z,8.10
2022-08-18T15:28:28.098Z,8.30
2022-08-18T15:33:51.158Z,8.70
2022-08-18T15:36:28.782Z,8.10
2022-08-18T15:38:59.963Z,9.10
2022-08-18T15:41:43.923Z,8.30
2022-08-18T15:44:20.201Z,7.80
2022-08-18T15:46:53.308Z,8.80
2022-08-18T15:49:23.193Z,8.40
2022-08-18T15:51:52.629Z,8.30
2022-08-18T15:54:21.293Z,8.00
2022-08-18T15:56:57.786Z,8.90
2022-08-18T15:59:34.122Z,9.20
2022-08-18T16:02:11.958Z,8.70
2022-08-18T16:04:46.271Z,8.50
2022-08-18T16:07:15.892Z,7.70
2022-08-18T16:09:46.496Z,7.70
2022-08-18T16:12:14.582Z,9.50
2022-08-18T16:14:43.047Z,9.70
2022-08-18T16:17:18.173Z,8.20
2022-08-18T16:19:52.085Z,7.80
2022-08-18T16:22:21.205Z,8.30
2022-08-18T16:24:52.765Z,9.50
2022-08-18T16:27:23.987Z,8.40
2022-08-18T16:29:52.600Z,8.00
2022-08-18T16:32:20.879Z,8.10
2022-08-18T16:34:49.433Z,9.20
2022-08-18T16:37:17.380Z,8.30
2022-08-18T16:39:45.418Z,8.20
2022-08-18T16:42:13.977Z,10.30
2022-08-18T16:44:42.153Z,8.70
2022-08-18T16:47:10.303Z,8.50
2022-08-18T16:49:38.298Z,8.20
2022-08-18T16:52:07.191Z,10.00
2022-08-18T16:54:35.252Z,9.20
2022-08-18T16:57:03.657Z,8.50
2022-08-18T16:59:50.552Z,8.70
2022-08-18T17:02:37.852Z,9.30
2022-08-18T17:05:06.827Z,8.20
2022-08-18T17:07:36.292Z,9.70
2022-08-18T17:10:06.367Z,8.50
2022-08-18T17:12:34.749Z,8.30
2022-08-18T17:15:03.027Z,9.80
2022-08-18T17:17:32.162Z,10.00
2022-08-18T17:20:00.465Z,10.00
2022-08-18T17:22:28.476Z,12.30
2022-08-18T17:25:02.236Z,8.70
2022-08-18T17:27:37.413Z,7.90
2022-08-18T17:30:13.979Z,7.80
2022-08-18T17:33:04.993Z,8.70
2022-08-18T17:35:44.491Z,8.80
2022-08-18T17:38:32.781Z,8.30
2022-08-18T17:41:03.927Z,8.30
2022-08-18T17:46:27.819Z,8.50
2022-08-18T17:49:18.623Z,8.60
2022-08-18T17:51:55.417Z,8.60
2022-08-18T17:54:46.592Z,10.40
2022-08-18T17:57:24.307Z,8.20
2022-08-18T18:00:13.786Z,8.30
2022-08-18T18:02:45.478Z,8.30
2022-08-18T18:05:21.682Z,8.00
2022-08-18T18:07:52.888Z,8.70
2022-08-18T18:11:05.435Z,9.00
2022-08-18T18:13:34.598Z,8.80
2022-08-18T18:16:21.114Z,8.70
2022-08-18T18:19:03.279Z,8.70
2022-08-18T18:21:58.902Z,9.70
2022-08-18T18:24:32.451Z,9.70
2022-08-18T18:27:02.373Z,10.50
2022-08-18T18:29:38.099Z,9.60
2022-08-18T18:32:38.643Z,9.40
2022-08-18T18:35:27.567Z,8.90
2022-08-18T18:38:06.330Z,8.80
2022-08-18T18:40:53.613Z,10.00
2022-08-18T18:43:38.354Z,8.10
2022-08-18T18:46:18.648Z,9.50
2022-08-18T18:49:33.530Z,14.50
2022-08-18T18:52:25.722Z,35.40
2022-08-18T18:55:06.528Z,80.00
2022-08-18T18:58:15.827Z,153.90
2022-08-18T19:00:53.415Z,216.20
2022-08-18T19:03:51.804Z,332.50
2022-08-18T19:06:41.176Z,332.00
2022-08-18T19:09:29.827Z,258.80
2022-08-18T19:12:43.650Z,198.80
2022-08-18T19:15:16.111Z,188.20
2022-08-18T19:18:04.016Z,180.80
2022-08-18T19:21:38.112Z,157.70
2022-08-18T19:24:30.779Z,156.20
2022-08-18T19:27:04.402Z,147.90
2022-08-18T19:29:43.849Z,158.40
2022-08-18T19:32:31.435Z,161.20
2022-08-18T19:35:04.510Z,176.50
2022-08-18T19:38:18.977Z,194.30
2022-08-18T19:41:00.576Z,174.90
2022-08-18T19:43:41.873Z,175.40
2022-08-18T19:46:27.635Z,165.90
2022-08-18T19:49:06.353Z,157.80
2022-08-18T19:51:39.394Z,163.60
2022-08-18T19:54:16.317Z,155.10
2022-08-18T19:56:56.385Z,149.90
2022-08-18T19:59:48.936Z,139.10
2022-08-18T20:02:44.376Z,142.70
2022-08-18T20:05:39.398Z,135.40
2022-08-18T20:08:34.032Z,130.10
2022-08-18T20:11:41.045Z,116.40
2022-08-18T20:14:19.107Z,116.60
2022-08-18T20:17:17.609Z,112.20
2022-08-18T20:20:13.075Z,102.30
2022-08-18T20:22:47.475Z,88.30
2022-08-18T20:28:00.486Z,94.40
2022-08-18T20:30:32.488Z,96.40
2022-08-18T20:33:14.648Z,94.50
2022-08-18T20:35:54.082Z,81.90
2022-08-18T20:38:35.700Z,87.30
2022-08-18T20:41:28.819Z,79.40
2022-08-18T20:44:21.824Z,70.00
2022-08-18T20:47:24.573Z,67.30
2022-08-18T20:50:21.010Z,73.50
2022-08-18T20:53:00.757Z,60.60
2022-08-18T20:55:45.526Z,61.40
2022-08-18T20:58:22.091Z,64.90
2022-08-18T21:00:57.479Z,54.50
2022-08-18T21:03:38.185Z,55.40
2022-08-18T21:06:08.479Z,58.00
2022-08-18T21:08:44.438Z,49.80
2022-08-18T21:11:38.457Z,48.00
2022-08-18T21:14:07.967Z,47.30
2022-08-18T21:16:45.272Z,42.60
2022-08-18T21:19:28.881Z,44.30
2022-08-18T21:22:01.849Z,44.70
2022-08-18T21:24:32.538Z,38.30
2022-08-18T21:27:39.187Z,34.80
2022-08-18T21:30:24.882Z,36.60
2022-08-18T21:32:53.686Z,36.60
2022-08-18T21:35:33.740Z,35.90
2022-08-18T21:38:05.765Z,35.90
2022-08-18T21:40:44.391Z,35.30
2022-08-18T21:43:33.954Z,32.20
2022-08-18T21:46:03.771Z,36.80
2022-08-18T21:48:34.473Z,34.20
2022-08-18T21:51:04.236Z,29.40
2022-08-18T21:53:38.445Z,28.00
2022-08-18T21:56:07.139Z,30.50
2022-08-18T21:58:45.301Z,32.30
2022-08-18T22:01:31.674Z,30.10
2022-08-18T22:04:21.978Z,33.70
2022-08-18T22:07:00.018Z,33.40
2022-08-18T22:09:52.069Z,34.90
2022-08-18T22:12:44.545Z,27.70
2022-08-18T22:15:27.876Z,29.30
2022-08-18T22:18:06.092Z,28.70
2022-08-18T22:20:59.151Z,30.20
2022-08-18T22:24:07.553Z,28.60
2022-08-18T22:26:38.674Z,30.50
2022-08-18T22:29:06.678Z,26.00
2022-08-18T22:31:45.877Z,29.20
2022-08-18T22:34:27.720Z,26.90
2022-08-18T22:37:15.182Z,27.20
2022-08-18T22:39:54.652Z,25.30
2022-08-18T22:42:27.582Z,24.20
2022-08-18T22:44:59.084Z,21.50
2022-08-18T22:47:34.182Z,23.90
2022-08-18T22:50:11.122Z,23.60
2022-08-18T22:52:48.564Z,23.80
2022-08-18T22:55:23.784Z,20.20
2022-08-18T22:57:56.314Z,21.50
2022-08-18T23:00:26.181Z,20.50
2022-08-18T23:02:55.597Z,21.90
2022-08-18T23:05:24.607Z,18.80
2022-08-18T23:07:53.099Z,22.60
2022-08-18T23:10:21.780Z,18.80
2022-08-18T23:12:49.969Z,17.70
2022-08-18T23:15:20.482Z,21.60
2022-08-18T23:17:48.679Z,18.90
2022-08-18T23:20:20.259Z,15.30
2022-08-18T23:22:54.593Z,17.20
2022-08-18T23:25:22.598Z,19.20
2022-08-18T23:27:54.661Z,16.20
2022-08-18T23:30:24.435Z,20.10
2022-08-18T23:32:55.209Z,15.80
2022-08-18T23:35:24.102Z,15.80
2022-08-18T23:37:52.307Z,15.90
2022-08-18T23:40:20.758Z,17.70
2022-08-18T23:42:51.806Z,17.50
2022-08-18T23:45:20.437Z,16.40
2022-08-18T23:47:48.583Z,17.10
2022-08-18T23:50:16.935Z,16.50
2022-08-18T23:52:47.326Z,14.90
2022-08-18T23:55:15.798Z,16.90
2022-08-18T23:57:43.915Z,15.40
